Time;durP1;ratioP1;P1;durP2;ratioP2;P2;SDS_P1;SDS_P2;PMS_P1;PMS_P2;Temp;Humidity;BMP_temperature;BMP_pressure;BME280_temperature;BME280_humidity;BME280_pressure;Samples;Min_cycle;Max_cycle;Signal;HPM_P1;HPM_P2
2021/05/12 00:00:14;;;;;;;9.07;8.07;;;;;;;16.21;76.13;100488.59;5033862;28;20049;-62
2021/05/12 00:02:42;;;;;;;8.85;7.68;;;;;;;16.21;75.93;100487.75;5053355;28;20045;-63
2021/05/12 00:05:10;;;;;;;11.77;8.75;;;;;;;16.19;76.16;100482.59;5053766;28;20052;-73
2021/05/12 00:07:37;;;;;;;9.43;8.38;;;;;;;16.17;76.16;100481.88;5053897;28;20545;-63
2021/05/12 00:10:06;;;;;;;8.77;7.88;;;;;;;16.13;76.22;100478.66;5053663;28;20072;-63
2021/05/12 00:12:34;;;;;;;12.18;8.30;;;;;;;16.09;76.52;100468.47;5053639;28;20489;-63
2021/05/12 00:15:03;;;;;;;11.35;9.75;;;;;;;16.07;76.55;100476.53;5053582;28;20056;-63
2021/05/12 00:17:30;;;;;;;14.25;10.30;;;;;;;16.03;76.67;100479.56;5043677;28;20132;-73
2021/05/12 00:20:00;;;;;;;14.00;10.68;;;;;;;15.99;76.50;100473.69;5033746;28;20046;-71
2021/05/12 00:24:57;;;;;;;14.45;11.95;;;;;;;15.91;76.96;100474.34;5033575;28;20049;-63
2021/05/12 00:27:23;;;;;;;14.43;11.27;;;;;;;15.90;77.12;100466.53;5033346;28;20053;-64
2021/05/12 00:29:50;;;;;;;13.27;10.63;;;;;;;15.88;77.30;100465.81;5033684;28;20138;-62
2021/05/12 00:32:18;;;;;;;14.52;10.70;;;;;;;15.86;77.33;100465.09;5033174;28;20046;-63
2021/05/12 00:34:44;;;;;;;13.45;10.20;;;;;;;15.86;77.60;100476.53;5033200;28;20068;-63
2021/05/12 00:37:11;;;;;;;17.13;11.25;;;;;;;15.86;77.56;100465.94;5033280;28;20084;-73
2021/05/12 00:39:38;;;;;;;12.88;10.38;;;;;;;15.85;77.42;100469.56;5033341;28;20053;-63
2021/05/12 00:42:05;;;;;;;11.57;8.50;;;;;;;15.83;77.63;100461.75;5033068;28;20096;-64
2021/05/12 00:44:32;;;;;;;10.93;8.90;;;;;;;15.78;77.50;100455.97;5033245;28;20053;-63
2021/05/12 00:47:04;;;;;;;11.68;8.30;;;;;;;15.78;77.40;100452.47;5033188;28;20494;-63
2021/05/12 00:49:32;;;;;;;10.45;7.93;;;;;;;15.75;77.58;100447.44;5033293;28;20056;-63
2021/05/12 00:52:00;;;;;;;8.30;7.00;;;;;;;15.75;77.45;100452.75;5033198;28;20541;-62
2021/05/12 00:54:27;;;;;;;7.32;5.32;;;;;;;15.72;77.33;100445.03;5032780;28;20046;-63
2021/05/12 00:56:54;;;;;;;8.02;6.38;;;;;;;15.70;77.17;100444.34;5032945;28;20060;-63
2021/05/12 00:59:30;;;;;;;6.20;5.30;;;;;;;15.67;77.10;100438.34;5032827;28;20065;-62
2021/05/12 01:01:57;;;;;;;8.82;5.55;;;;;;;15.65;77.07;100439.44;5032864;28;20045;-63
2021/05/12 01:04:24;;;;;;;5.95;4.82;;;;;;;15.62;76.87;100437.88;5032693;28;20048;-62
2021/05/12 01:06:51;;;;;;;5.53;3.90;;;;;;;15.60;77.06;100444.28;5032231;28;20050;-70
2021/05/12 01:09:20;;;;;;;4.68;3.65;;;;;;;15.59;76.86;100442.59;5032658;28;20056;-67
2021/05/12 01:11:47;;;;;;;4.30;3.33;;;;;;;15.58;76.77;100443.53;5032689;28;20049;-63
2021/05/12 01:14:13;;;;;;;4.38;3.20;;;;;;;15.58;76.83;100438.25;5032403;28;20490;-63
2021/05/12 01:16:42;;;;;;;4.43;3.30;;;;;;;15.59;76.50;100448.72;5032735;28;20046;-63
2021/05/12 01:19:11;;;;;;;4.03;3.25;;;;;;;15.61;76.56;100438.00;5032426;28;20053;-63
2021/05/12 01:21:37;;;;;;;9.25;3.45;;;;;;;15.62;76.72;100434.41;5032667;28;20041;-62
2021/05/12 01:24:05;;;;;;;2.78;2.22;;;;;;;15.62;76.33;100437.06;5032331;28;20478;-63
2021/05/12 01:26:33;;;;;;;1.73;1.50;;;;;;;15.59;76.49;100432.88;5032461;28;20589;-70
2021/05/12 01:29:00;;;;;;;2.13;1.42;;;;;;;15.55;76.19;100436.69;5032396;28;20172;-63
2021/05/12 01:31:35;;;;;;;2.10;1.17;;;;;;;15.55;76.23;100438.53;5032443;28;20041;-62
2021/05/12 01:34:05;;;;;;;0.85;0.65;;;;;;;15.54;76.00;100435.03;5032284;28;20049;-63
2021/05/12 01:36:34;;;;;;;1.27;0.70;;;;;;;15.55;75.62;100441.16;5032478;28;20056;-62
2021/05/12 01:39:01;;;;;;;0.93;0.63;;;;;;;15.53;75.42;100436.00;5032342;28;20045;-62
2021/05/12 01:41:28;;;;;;;1.95;0.40;;;;;;;15.54;75.13;100429.75;5032286;28;20045;-63
2021/05/12 01:43:55;;;;;;;1.00;0.50;;;;;;;15.51;75.14;100433.50;5031105;28;20042;-64
2021/05/12 01:46:23;;;;;;;1.80;0.70;;;;;;;15.49;74.89;100427.47;5032152;28;20095;-72
2021/05/12 01:48:50;;;;;;;0.90;0.70;;;;;;;15.49;75.11;100427.47;5032310;28;20107;-72
2021/05/12 01:51:18;;;;;;;3.25;0.75;;;;;;;15.46;74.78;100425.06;5032227;28;20494;-63
2021/05/12 01:53:45;;;;;;;1.85;0.80;;;;;;;15.44;75.02;100419.09;5032909;28;20049;-62
2021/05/12 01:56:12;;;;;;;2.80;0.77;;;;;;;15.42;74.94;100423.66;5039322;28;20384;-71
2021/05/12 01:58:39;;;;;;;1.55;1.00;;;;;;;15.42;74.91;100426.31;5032268;28;20045;-63
2021/05/12 02:01:06;;;;;;;2.35;1.05;;;;;;;15.43;74.92;100425.34;5032083;28;20072;-63
2021/05/12 02:03:33;;;;;;;3.53;1.73;;;;;;;15.44;74.65;100426.16;5032114;28;20497;-63
2021/05/12 02:06:04;;;;;;;2.30;1.52;;;;;;;15.44;74.82;100419.09;5032329;28;20092;-63
2021/05/12 02:08:31;;;;;;;2.35;1.52;;;;;;;15.43;74.59;100417.41;5032336;28;20050;-62
2021/05/12 02:11:03;;;;;;;2.97;1.50;;;;;;;15.44;74.74;100419.09;5035966;28;20053;-62
2021/05/12 02:13:31;;;;;;;8.95;3.75;;;;;;;15.45;74.75;100427.84;5038591;28;20045;-63
2021/05/12 02:16:06;;;;;;;2.45;1.70;;;;;;;15.44;74.55;100420.88;5031997;28;20057;-62
2021/05/12 02:18:33;;;;;;;2.97;1.75;;;;;;;15.43;74.63;100416.59;5031976;28;20065;-63
2021/05/12 02:21:01;;;;;;;3.05;1.60;;;;;;;15.44;74.57;100412.94;5032078;28;20046;-63
2021/05/12 02:23:30;;;;;;;3.03;1.83;;;;;;;15.43;74.47;100416.59;5031805;28;20409;-63
2021/05/12 02:25:58;;;;;;;3.33;1.50;;;;;;;15.42;74.44;100414.91;5031972;28;20486;-71
2021/05/12 02:28:26;;;;;;;1.63;1.40;;;;;;;15.42;74.46;100413.09;5031404;28;20060;-63
2021/05/12 02:30:53;;;;;;;3.55;1.70;;;;;;;15.42;74.26;100410.44;5032015;28;20053;-69
2021/05/12 02:33:20;;;;;;;2.25;1.58;;;;;;;15.44;74.39;100408.50;5031785;28;20049;-63
2021/05/12 02:35:47;;;;;;;1.50;1.20;;;;;;;15.46;74.36;100405.75;5031982;28;20071;-62
2021/05/12 02:38:14;;;;;;;2.35;1.50;;;;;;;15.47;74.24;100399.50;5030771;28;20128;-63
2021/05/12 02:40:40;;;;;;;2.38;1.63;;;;;;;15.47;74.21;100399.50;5031892;28;20080;-62
2021/05/12 02:43:07;;;;;;;1.70;1.40;;;;;;;15.46;74.17;100401.28;5031703;28;20068;-63
2021/05/12 02:45:34;;;;;;;3.13;1.70;;;;;;;15.45;74.24;100394.34;5031656;28;20045;-63
2021/05/12 02:48:04;;;;;;;1.52;1.20;;;;;;;15.44;74.30;100402.38;5031648;28;20124;-63
2021/05/12 02:50:37;;;;;;;1.45;1.27;;;;;;;15.41;74.16;100392.06;5031700;28;20045;-63
2021/05/12 02:53:05;;;;;;;1.65;1.08;;;;;;;15.38;74.07;100387.88;5031642;28;20049;-72
2021/05/12 02:55:33;;;;;;;1.50;1.20;;;;;;;15.38;74.12;100389.69;5031625;28;20060;-69
2021/05/12 02:58:04;;;;;;;1.90;1.00;;;;;;;15.35;74.03;100383.66;5034463;28;20045;-62
2021/05/12 03:00:32;;;;;;;1.50;0.88;;;;;;;15.35;74.08;100391.59;5035078;28;20042;-63
2021/05/12 03:02:58;;;;;;;1.02;0.68;;;;;;;15.36;74.01;100389.78;5040147;28;20041;-62
2021/05/12 03:05:26;;;;;;;1.88;0.77;;;;;;;15.34;74.28;100387.28;5051556;28;20456;-62
2021/05/12 03:07:53;;;;;;;2.33;0.85;;;;;;;15.34;74.19;100386.44;5051891;28;20163;-63
2021/05/12 03:10:21;;;;;;;1.35;0.95;;;;;;;15.33;74.14;100382.94;5051417;28;20072;-63
2021/05/12 03:12:50;;;;;;;0.95;0.63;;;;;;;15.33;74.26;100382.94;5051515;28;20098;-62
2021/05/12 03:15:20;;;;;;;1.60;1.00;;;;;;;15.35;74.49;100382.84;5051496;28;20056;-63
2021/05/12 03:17:52;;;;;;;0.98;0.63;;;;;;;15.33;74.41;100388.25;5044300;28;20136;-63
2021/05/12 03:20:20;;;;;;;1.23;0.80;;;;;;;15.33;74.50;100387.41;5030489;28;20049;-63
2021/05/12 03:22:47;;;;;;;1.77;0.98;;;;;;;15.33;74.51;100390.88;5031598;28;20050;-63
2021/05/12 03:25:15;;;;;;;2.08;0.70;;;;;;;15.32;74.50;100383.09;5031244;28;20041;-63
2021/05/12 03:27:43;;;;;;;2.70;0.85;;;;;;;15.33;74.77;100384.75;5031308;28;20451;-63
2021/05/12 03:30:16;;;;;;;6.80;1.27;;;;;;;15.34;74.65;100389.09;5031398;28;20115;-63
2021/05/12 03:32:43;;;;;;;1.33;0.70;;;;;;;15.35;74.82;100388.97;5031178;28;20099;-63
2021/05/12 03:35:10;;;;;;;2.13;0.80;;;;;;;15.38;75.01;100389.69;5031093;28;20060;-63
2021/05/12 03:37:37;;;;;;;1.75;0.75;;;;;;;15.40;75.11;100393.88;5031054;28;20041;-63
2021/05/12 03:40:06;;;;;;;1.02;0.60;;;;;;;15.37;74.92;100390.66;5031109;28;20495;-63
2021/05/12 03:42:33;;;;;;;1.50;0.50;;;;;;;15.34;75.21;100383.81;5031182;28;20054;-62
2021/05/12 03:45:01;;;;;;;1.50;0.40;;;;;;;15.33;75.06;100388.25;5030948;28;20054;-63
2021/05/12 03:47:27;;;;;;;0.68;0.38;;;;;;;15.33;75.24;100382.94;5031403;28;20049;-72
2021/05/12 03:49:54;;;;;;;1.58;0.40;;;;;;;15.31;75.19;100382.25;5031031;28;20049;-62
2021/05/12 03:52:21;;;;;;;0.50;0.40;;;;;;;15.28;75.31;100382.50;5030609;28;20111;-63
2021/05/12 03:54:50;;;;;;;0.65;0.40;;;;;;;15.27;75.61;100380.81;5030571;28;20406;-63
2021/05/12 03:57:18;;;;;;;3.03;0.60;;;;;;;15.26;75.41;100380.94;5030742;28;20460;-62
2021/05/12 03:59:45;;;;;;;1.33;0.50;;;;;;;15.23;75.50;100376.75;5030687;28;20103;-62
2021/05/12 04:02:12;;;;;;;0.80;0.20;;;;;;;15.20;75.45;100371.72;5030703;28;20041;-62
2021/05/12 04:04:40;;;;;;;0.85;0.47;;;;;;;15.19;75.61;100378.81;5039911;28;20049;-63
2021/05/12 04:07:07;;;;;;;1.23;0.40;;;;;;;15.18;75.80;100376.28;5044460;28;20047;-63
2021/05/12 04:09:34;;;;;;;1.02;0.30;;;;;;;15.20;75.64;100371.72;5047209;28;20489;-62
2021/05/12 04:12:01;;;;;;;1.30;0.35;;;;;;;15.22;75.76;100361.03;5045933;28;20052;-63
2021/05/12 04:14:28;;;;;;;0.60;0.38;;;;;;;15.20;75.78;100361.16;5050546;28;20140;-63
2021/05/12 04:16:55;;;;;;;0.60;0.20;;;;;;;15.18;75.82;100361.28;5050402;28;20052;-63
2021/05/12 04:19:22;;;;;;;0.20;0.20;;;;;;;15.14;75.76;100361.66;5050184;28;20057;-63
2021/05/12 04:21:49;;;;;;;0.95;0.30;;;;;;;15.11;75.98;100364.53;5050232;28;20111;-63
2021/05/12 04:24:16;;;;;;;2.67;0.40;;;;;;;15.09;75.99;100369.94;5048728;28;20049;-72
2021/05/12 04:26:43;;;;;;;0.52;0.20;;;;;;;15.09;76.01;100366.47;5030092;28;20053;-63
2021/05/12 04:29:10;;;;;;;0.63;0.30;;;;;;;15.08;75.91;100370.09;5030046;28;20053;-63
2021/05/12 04:31:37;;;;;;;1.42;0.20;;;;;;;15.07;76.19;100379.81;5030416;28;20457;-64
2021/05/12 04:34:04;;;;;;;1.67;0.20;;;;;;;15.07;76.14;100378.97;5030127;28;20042;-64
2021/05/12 04:36:31;;;;;;;1.38;0.20;;;;;;;15.05;76.26;100375.63;5030052;28;20053;-64
2021/05/12 04:38:58;;;;;;;0.20;0.20;;;;;;;15.05;76.14;100383.56;5030003;28;20041;-64
2021/05/12 04:41:25;;;;;;;0.10;0.10;;;;;;;15.01;76.14;100389.06;5029854;28;20045;-65
2021/05/12 04:43:59;;;;;;;0.43;0.10;;;;;;;14.99;76.26;100390.16;5030194;28;20072;-62
2021/05/12 04:46:25;;;;;;;1.25;0.25;;;;;;;14.98;76.21;100388.47;5029934;28;20057;-64
2021/05/12 04:48:53;;;;;;;1.10;0.20;;;;;;;14.97;76.31;100392.06;5029831;28;20045;-64
2021/05/12 04:51:21;;;;;;;0.50;0.20;;;;;;;14.98;76.41;100396.41;5039852;28;20044;-64
2021/05/12 04:53:48;;;;;;;0.28;0.25;;;;;;;15.00;76.49;100411.16;5049673;28;20041;-64
2021/05/12 04:56:15;;;;;;;0.40;0.25;;;;;;;15.00;76.41;100402.41;5048828;28;20498;-73
2021/05/12 04:58:42;;;;;;;0.50;0.45;;;;;;;15.02;76.31;100405.78;5049354;28;20382;-65
2021/05/12 05:01:11;;;;;;;1.10;0.28;;;;;;;15.02;76.43;100405.78;5041735;28;20052;-65
2021/05/12 05:03:42;;;;;;;0.50;0.20;;;;;;;15.00;76.27;100403.25;5029891;28;20050;-64
2021/05/12 05:06:10;;;;;;;0.55;0.40;;;;;;;14.99;76.55;100400.72;5029540;28;20103;-64
2021/05/12 05:08:37;;;;;;;1.08;0.30;;;;;;;14.97;76.55;100406.16;5029696;28;20073;-64
2021/05/12 05:11:04;;;;;;;0.82;0.43;;;;;;;14.96;76.42;100407.09;5029409;28;20045;-64
2021/05/12 05:13:31;;;;;;;0.90;0.47;;;;;;;14.95;76.57;100412.53;5029404;28;20478;-64
2021/05/12 05:15:58;;;;;;;0.73;0.40;;;;;;;14.95;76.60;100407.25;5029225;28;20049;-65
2021/05/12 05:18:25;;;;;;;2.58;0.73;;;;;;;14.95;76.58;100404.59;5028911;28;20054;-64
2021/05/12 05:20:55;;;;;;;0.45;0.45;;;;;;;14.94;76.47;100406.38;5028929;28;20045;-64
2021/05/12 05:23:22;;;;;;;1.83;0.70;;;;;;;14.94;76.50;100406.38;5028971;28;20514;-64
2021/05/12 05:25:50;;;;;;;1.27;0.50;;;;;;;14.94;76.60;100408.19;5029246;28;20041;-64
2021/05/12 05:28:17;;;;;;;3.05;0.80;;;;;;;14.94;76.56;100409.03;5029023;28;20049;-64
2021/05/12 05:30:44;;;;;;;1.23;0.55;;;;;;;14.97;76.62;100414.06;5029050;28;20051;-66
2021/05/12 05:33:11;;;;;;;0.93;0.60;;;;;;;14.98;76.37;100414.91;5028901;28;20064;-63
2021/05/12 05:35:37;;;;;;;1.63;0.60;;;;;;;14.99;76.26;100411.31;5029386;28;20053;-65
2021/05/12 05:38:07;;;;;;;1.80;0.63;;;;;;;14.98;76.44;100423.69;5029280;28;20083;-64
2021/05/12 05:40:37;;;;;;;1.42;0.73;;;;;;;15.00;76.34;100407.69;5029181;28;20057;-64
2021/05/12 05:43:07;;;;;;;1.48;0.65;;;;;;;14.97;76.13;100415.88;5028912;28;20056;-67
2021/05/12 05:45:34;;;;;;;0.70;0.40;;;;;;;14.98;76.14;100423.69;5028954;28;20053;-66
2021/05/12 05:48:10;;;;;;;1.10;0.50;;;;;;;14.98;76.22;100428.97;5028998;28;20072;-65
2021/05/12 05:50:38;;;;;;;1.13;0.50;;;;;;;15.00;76.18;100420.91;5028816;28;20057;-68
2021/05/12 05:53:05;;;;;;;1.25;0.40;;;;;;;14.98;76.21;100417.53;5028959;28;20087;-70
2021/05/12 05:55:32;;;;;;;4.28;0.50;;;;;;;14.98;76.15;100417.53;5029401;28;20053;-66
2021/05/12 05:57:59;;;;;;;1.98;0.50;;;;;;;15.01;75.79;100431.34;5028817;28;20053;-66
2021/05/12 06:00:26;;;;;;;0.93;0.40;;;;;;;15.02;75.90;100432.22;5028636;28;20088;-66
2021/05/12 06:02:53;;;;;;;1.50;0.38;;;;;;;15.03;75.83;100439.16;5029216;28;20049;-66
2021/05/12 06:05:20;;;;;;;0.80;0.50;;;;;;;15.02;76.10;100440.97;5028549;28;20057;-66
2021/05/12 06:07:47;;;;;;;0.75;0.60;;;;;;;15.04;76.02;100451.41;5028718;28;20050;-65
2021/05/12 06:10:14;;;;;;;2.95;0.90;;;;;;;15.07;75.90;100443.25;5028739;28;20049;-66
2021/05/12 06:12:45;;;;;;;3.10;1.30;;;;;;;15.10;75.99;100445.63;5028803;28;20271;-66
2021/05/12 06:15:17;;;;;;;2.47;1.50;;;;;;;15.12;75.97;100446.34;5028534;28;20050;-66
2021/05/12 06:17:50;;;;;;;2.42;2.10;;;;;;;15.13;75.67;100453.28;5029010;28;20049;-66
2021/05/12 06:20:29;;;;;;;3.75;2.28;;;;;;;15.16;75.78;100452.22;5028751;28;20041;-66
2021/05/12 06:23:04;;;;;;;4.20;2.63;;;;;;;15.18;75.79;100461.72;5031036;28;20091;-66
2021/05/12 06:25:53;;;;;;;5.50;3.40;;;;;;;15.18;75.66;100453.78;5046565;28;20044;-66
2021/05/12 06:28:21;;;;;;;5.40;4.68;;;;;;;15.22;75.88;100462.28;5045636;28;20121;-66
2021/05/12 06:30:51;;;;;;;7.38;6.10;;;;;;;15.20;75.97;100472.16;5048916;28;20061;-66
2021/05/12 06:33:18;;;;;;;9.13;7.82;;;;;;;15.22;76.33;100469.41;5051561;28;20048;-67
2021/05/12 06:35:45;;;;;;;10.35;8.75;;;;;;;15.24;76.14;100465.66;5050759;28;20041;-66
2021/05/12 06:38:12;;;;;;;9.82;8.68;;;;;;;15.27;76.06;100468.03;5048642;28;20106;-66
2021/05/12 06:40:38;;;;;;;10.70;9.60;;;;;;;15.32;76.19;100472.97;5048727;28;20048;-66
2021/05/12 06:43:05;;;;;;;10.65;9.52;;;;;;;15.35;76.24;100473.56;5051129;28;20087;-66
2021/05/12 06:45:32;;;;;;;11.57;9.50;;;;;;;15.41;76.60;100474.03;5051231;28;20053;-66
2021/05/12 06:47:59;;;;;;;11.05;9.90;;;;;;;15.44;76.62;100471.97;5048248;28;20048;-66
2021/05/12 06:50:26;;;;;;;12.73;9.27;;;;;;;15.46;76.67;100472.69;5051190;28;20049;-66
2021/05/12 06:52:57;;;;;;;11.80;9.57;;;;;;;15.48;76.62;100483.16;5050784;28;20044;-66
2021/05/12 06:55:25;;;;;;;11.45;9.38;;;;;;;15.48;76.73;100489.28;5031509;28;20049;-67
2021/05/12 06:57:52;;;;;;;14.02;9.00;;;;;;;15.50;76.69;100495.28;5035226;28;20041;-66
2021/05/12 07:00:20;;;;;;;11.27;9.10;;;;;;;15.50;76.80;100491.78;5051201;28;20496;-66
2021/05/12 07:02:50;;;;;;;8.85;7.95;;;;;;;15.52;76.92;100493.34;5051763;28;20429;-64
2021/05/12 07:05:20;;;;;;;10.60;8.75;;;;;;;15.53;76.62;100491.53;5051206;28;20490;-66
2021/05/12 07:07:47;;;;;;;10.93;9.20;;;;;;;15.53;76.53;100491.53;5051059;28;20041;-67
2021/05/12 07:10:14;;;;;;;10.10;9.10;;;;;;;15.55;76.55;100494.06;5051280;28;20061;-65
2021/05/12 07:12:41;;;;;;;12.35;8.73;;;;;;;15.58;76.66;100499.09;5036944;28;20046;-66
2021/05/12 07:15:09;;;;;;;10.18;7.97;;;;;;;15.62;76.69;100497.88;5031115;28;20045;-64
2021/05/12 07:17:36;;;;;;;11.32;9.00;;;;;;;15.66;76.78;100504.59;5030955;28;20049;-68
2021/05/12 07:20:04;;;;;;;9.93;8.88;;;;;;;15.68;76.61;100508.81;5031438;28;20383;-66
2021/05/12 07:22:31;;;;;;;10.38;8.65;;;;;;;15.73;76.70;100502.28;5030538;28;20099;-66
2021/05/12 07:25:01;;;;;;;9.88;8.40;;;;;;;15.78;76.82;100503.59;5030803;28;20137;-66
2021/05/12 07:27:28;;;;;;;12.02;8.90;;;;;;;15.82;76.76;100515.63;5031285;28;20053;-66
2021/05/12 07:29:55;;;;;;;11.30;9.43;;;;;;;15.84;76.29;100518.16;5030988;28;20096;-66
2021/05/12 07:32:22;;;;;;;11.55;9.52;;;;;;;15.83;76.46;100512.03;5031458;28;20045;-66
2021/05/12 07:35:24;;;;;;;10.68;8.82;;;;;;;15.86;76.39;100507.44;5030642;28;20045;-66
2021/05/12 07:37:51;;;;;;;10.30;8.80;;;;;;;15.92;76.50;100515.72;5030755;28;20075;-66
2021/05/12 07:40:18;;;;;;;12.82;8.93;;;;;;;15.96;76.43;100513.63;5031119;28;20050;-66
2021/05/12 07:42:54;;;;;;;10.00;8.13;;;;;;;15.98;76.27;100514.34;5030179;28;20049;-66
2021/05/12 07:45:22;;;;;;;9.95;7.35;;;;;;;16.05;75.96;100518.19;5030296;28;20053;-66
2021/05/12 07:48:09;;;;;;;10.52;7.32;;;;;;;16.10;76.18;100515.13;5030082;28;20072;-66
2021/05/12 07:50:39;;;;;;;9.43;6.82;;;;;;;16.13;75.77;100512.25;5043314;28;20567;-67
2021/05/12 07:56:47;;;;;;;8.07;5.22;;;;;;;16.23;75.77;100504.38;5050435;28;20135;-65
2021/05/12 07:59:18;;;;;;;7.20;5.07;;;;;;;16.25;75.25;100507.72;5050279;28;20455;-66
2021/05/12 08:01:47;;;;;;;5.90;4.90;;;;;;;16.27;75.37;100503.13;5050300;28;20044;-66
2021/05/12 08:04:14;;;;;;;8.73;5.70;;;;;;;16.29;75.27;100504.69;5047775;28;20081;-67
2021/05/12 08:06:41;;;;;;;5.97;5.03;;;;;;;16.29;74.66;100504.69;5049829;28;20098;-65
2021/05/12 08:09:09;;;;;;;6.80;4.75;;;;;;;16.33;74.68;100510.56;5049885;28;20045;-68
2021/05/12 08:11:36;;;;;;;5.85;5.07;;;;;;;16.36;74.91;100507.63;5049460;28;20048;-66
2021/05/12 08:14:04;;;;;;;7.50;4.55;;;;;;;16.37;74.62;100508.50;5049512;28;20071;-66
2021/05/12 08:16:31;;;;;;;6.07;4.32;;;;;;;16.41;74.96;100513.38;5049908;28;20061;-66
2021/05/12 08:18:58;;;;;;;7.57;4.03;;;;;;;16.42;74.75;100511.59;5048029;28;20091;-66
2021/05/12 08:21:45;;;;;;;9.65;5.57;;;;;;;16.43;74.37;100513.25;5030178;28;20049;-66
2021/05/12 08:24:11;;;;;;;;;;;;;;;16.45;74.85;100520.09;5028169;28;20053;-66
2021/05/12 08:26:38;;;;;;;7.47;5.10;;;;;;;16.50;74.64;100527.66;5030086;28;20370;-66
2021/05/12 08:29:07;;;;;;;7.82;5.32;;;;;;;16.49;74.51;100521.53;5029682;28;20082;-66
2021/05/12 08:31:37;;;;;;;7.38;5.35;;;;;;;16.49;74.36;100529.47;5029804;28;20055;-66
2021/05/12 08:34:07;;;;;;;6.03;5.20;;;;;;;16.52;73.91;100520.44;5029641;28;20494;-66
2021/05/12 08:36:34;;;;;;;8.52;5.93;;;;;;;16.54;73.91;100526.41;5029477;28;20049;-66
2021/05/12 08:39:04;;;;;;;8.45;5.93;;;;;;;16.55;73.62;100524.63;5029340;28;20068;-65
2021/05/12 08:41:41;;;;;;;8.52;6.22;;;;;;;16.56;73.72;100528.94;5028487;28;20410;-66
2021/05/12 08:44:13;;;;;;;7.95;5.07;;;;;;;16.56;73.74;100535.09;5027180;28;20279;-66
2021/05/12 08:49:39;;;;;;;6.93;5.35;;;;;;;16.61;73.68;100524.09;5046783;28;20059;-65
2021/05/12 08:52:43;;;;;;;6.88;6.00;;;;;;;16.66;73.76;100524.53;5033688;28;20601;-65
2021/05/12 09:09:37;;;;;;;6.05;4.30;;;;;;;16.85;72.53;100537.03;5048936;28;20052;-66
2021/05/12 09:12:04;;;;;;;6.63;3.90;;;;;;;16.91;72.45;100541.00;5040316;28;20088;-66
2021/05/12 09:14:43;;;;;;;5.25;4.32;;;;;;;16.98;72.10;100536.84;5033042;28;20071;-66
2021/05/12 09:17:21;;;;;;;5.97;4.03;;;;;;;17.00;71.22;100542.84;5012146;28;20057;-65
2021/05/12 09:19:51;;;;;;;4.82;4.10;;;;;;;17.04;71.13;100541.59;5046525;28;20110;-65
2021/05/12 09:22:18;;;;;;;6.35;4.30;;;;;;;17.10;71.02;100540.22;5042348;28;20437;-65
2021/05/12 09:24:45;;;;;;;5.57;4.40;;;;;;;17.14;71.29;100538.97;5039576;28;20060;-65
2021/05/12 09:27:32;;;;;;;;;;;;;;;;;;;;;
2021/05/12 09:30:02;;;;;;;5.03;3.60;;;;;;;17.23;69.89;100535.53;5028817;28;20132;-66
2021/05/12 09:32:43;;;;;;;5.25;3.10;;;;;;;17.29;69.74;100535.00;5029136;28;20551;-66
2021/05/12 09:35:11;;;;;;;4.40;3.17;;;;;;;17.33;69.49;100529.41;5028534;28;20884;-66
2021/05/12 09:37:41;;;;;;;6.00;3.70;;;;;;;17.35;68.71;100533.59;5028965;28;20053;-65
2021/05/12 09:40:21;;;;;;;5.85;4.05;;;;;;;17.40;68.31;100534.03;5028645;28;20080;-66
2021/05/12 09:42:59;;;;;;;6.75;4.82;;;;;;;17.43;68.20;100527.59;5028980;28;20131;-65
2021/05/12 09:45:28;;;;;;;6.93;4.88;;;;;;;17.45;68.42;100533.63;5028683;28;20049;-67
2021/05/12 09:48:01;;;;;;;7.18;5.05;;;;;;;17.46;67.91;100536.13;5028736;28;20060;-66
2021/05/12 09:50:41;;;;;;;;;;;;;;;;;;;;;
2021/05/12 09:53:36;;;;;;;7.78;5.07;;;;;;;17.50;67.34;100536.69;5028375;28;20057;-65
2021/05/12 09:56:03;;;;;;;6.32;5.18;;;;;;;17.53;67.25;100533.75;5028387;28;20053;-66
2021/05/12 09:58:30;;;;;;;9.70;5.10;;;;;;;17.55;66.18;100537.13;5033500;28;20072;-72
2021/05/12 10:00:57;;;;;;;9.82;5.13;;;;;;;17.62;66.43;100532.94;5047551;28;20080;-72
2021/05/12 10:03:25;;;;;;;7.07;4.50;;;;;;;17.74;66.69;100541.63;5040922;28;20550;-72
2021/05/12 10:06:20;;;;;;;8.20;5.90;;;;;;;17.83;66.41;100531.97;5029916;28;20080;-66
2021/05/12 10:08:47;;;;;;;6.35;4.93;;;;;;;17.86;66.04;100531.69;5028912;28;20055;-66
2021/05/12 10:11:14;;;;;;;6.35;4.60;;;;;;;17.91;66.70;100529.44;5032399;28;20057;-66
2021/05/12 10:13:41;;;;;;;6.85;3.60;;;;;;;17.97;65.86;100530.75;5032135;28;20045;-65
2021/05/12 10:16:18;;;;;;;6.00;3.38;;;;;;;18.07;65.19;100526.28;5032080;28;20096;-66
2021/05/12 10:18:45;;;;;;;4.25;3.40;;;;;;;18.15;64.62;100516.75;5032286;28;20058;-66
2021/05/12 10:21:13;;;;;;;4.60;3.00;;;;;;;18.27;64.20;100526.22;5042325;28;20402;-66
2021/05/12 10:23:41;;;;;;;4.22;3.67;;;;;;;18.31;63.84;100513.50;5038312;28;20049;-66
2021/05/12 10:26:08;;;;;;;5.10;3.58;;;;;;;18.35;62.95;100510.44;5031667;28;20091;-66
2021/05/12 10:28:58;;;;;;;3.00;2.40;;;;;;;18.42;62.02;100508.03;5036419;28;20053;-65
2021/05/12 10:31:27;;;;;;;5.22;2.78;;;;;;;18.43;61.83;100504.41;5034225;28;20058;-65
2021/05/12 10:33:56;;;;;;;3.53;3.00;;;;;;;18.44;62.08;100504.25;5038008;28;20417;-65
2021/05/12 10:36:24;;;;;;;4.72;2.90;;;;;;;18.45;62.73;100499.78;5042148;28;20054;-65
2021/05/12 10:38:56;;;;;;;4.25;2.90;;;;;;;18.46;62.42;100493.47;5036178;28;20053;-66
2021/05/12 10:41:47;;;;;;;6.10;3.60;;;;;;;18.49;62.20;100497.69;5050740;28;20041;-70
2021/05/12 10:44:36;;;;;;;7.40;3.80;;;;;;;18.58;62.49;100489.66;5050219;28;20503;-71
2021/05/12 10:47:21;;;;;;;7.05;3.65;;;;;;;18.72;63.70;100498.97;5039761;28;20115;-72
2021/05/12 10:49:53;;;;;;;3.05;2.33;;;;;;;18.82;63.96;100498.13;5042029;28;20048;-72
2021/05/12 10:52:20;;;;;;;6.40;2.67;;;;;;;18.85;62.88;100505.78;5034880;28;20055;-66
2021/05/12 10:55:04;;;;;;;9.70;2.85;;;;;;;18.89;62.11;100500.03;5045531;28;20059;-67
2021/05/12 10:58:02;;;;;;;;;;;;;;;;;;;;;
2021/05/12 11:01:03;;;;;;;4.80;2.78;;;;;;;18.91;62.10;100502.56;5041807;28;20049;-66
2021/05/12 11:06:57;;;;;;;5.25;3.28;;;;;;;18.95;62.74;100490.66;5057731;28;20053;-66
2021/05/12 11:09:42;;;;;;;7.20;3.25;;;;;;;19.03;63.82;100492.56;5040779;28;20053;-68
2021/05/12 11:12:11;;;;;;;5.95;3.58;;;;;;;19.11;64.63;100482.03;5037468;28;20049;-65
2021/05/12 11:15:44;;;;;;;2.97;2.50;;;;;;;19.12;62.65;100490.84;5040810;28;20103;-65
2021/05/12 11:18:06;;;;;;;3.83;2.78;;;;;;;19.12;61.13;100493.50;5039567;28;20489;-65
2021/05/12 11:20:47;;;;;;;4.78;3.22;;;;;;;19.10;60.14;100488.34;5038285;28;20103;-65
2021/05/12 11:23:17;;;;;;;4.25;2.97;;;;;;;19.12;59.43;100488.19;5032908;28;20163;-64
2021/05/12 11:26:24;;;;;;;4.35;3.35;;;;;;;19.11;59.12;100490.03;5005102;28;20482;-65
2021/05/12 11:36:19;;;;;;;4.97;2.97;;;;;;;19.07;57.76;100491.28;5033146;28;20117;-67
2021/05/12 11:39:23;;;;;;;4.88;3.90;;;;;;;19.11;57.92;100490.03;5042054;28;20060;-65
2021/05/12 11:42:40;;;;;;;4.97;3.35;;;;;;;19.17;57.97;100477.94;5051007;28;20045;-65
2021/05/12 11:45:13;;;;;;;7.63;4.35;;;;;;;19.22;57.61;100471.19;5043534;28;20052;-65
2021/05/12 11:48:06;;;;;;;6.22;4.50;;;;;;;19.28;58.06;100474.22;5049158;28;20615;-65
2021/05/12 11:50:36;;;;;;;5.35;3.65;;;;;;;19.31;57.78;100469.47;5049961;28;20106;-67
2021/05/12 11:53:03;;;;;;;6.15;4.22;;;;;;;19.33;57.87;100475.44;5049711;28;20037;-66
2021/05/12 11:55:33;;;;;;;6.13;4.40;;;;;;;19.35;57.87;100461.97;5048298;28;20045;-67
2021/05/12 11:58:01;;;;;;;7.72;4.28;;;;;;;19.39;57.79;100466.84;5050207;28;20107;-69
2021/05/12 12:00:42;;;;;;;5.80;4.53;;;;;;;19.44;57.95;100463.75;5047251;28;20049;-67
2021/05/12 12:03:12;;;;;;;5.28;4.40;;;;;;;19.54;57.25;100464.50;5049928;28;20104;-67
2021/05/12 12:05:51;;;;;;;6.18;4.55;;;;;;;19.64;56.52;100461.78;5049971;28;20049;-67
2021/05/12 12:08:32;;;;;;;7.28;4.47;;;;;;;19.72;56.10;100451.19;5049730;28;20049;-66
2021/05/12 12:11:18;;;;;;;4.63;4.03;;;;;;;19.83;56.12;100450.16;5033137;28;20128;-68
2021/05/12 12:14:07;;;;;;;6.47;4.57;;;;;;;19.93;55.66;100443.88;5000300;28;20064;-66
2021/05/12 12:16:36;;;;;;;5.85;4.32;;;;;;;19.97;54.99;100443.44;5040990;28;20049;-66